Terminal Aerodrome Forecast
Issued by NWS Mobile, AL

Home | Current Version | Previous Version | Text Only | Print | Product List | Glossary On
Versions: 1 2 3 4 5 6 7 8 9 10 11 12 13
000
FTUS44 KMOB 191734
TAFPNS
TAF
KPNS 191734Z 1918/2018 31012KT P6SM SKC
     FM200300 36012KT P6SM SCT250
     FM201400 04010KT P6SM FEW250=

USA.gov is the U.S. government's official web portal to all federal, state and local government web resources and services.